Time;durP1;ratioP1;P1;durP2;ratioP2;P2;SDS_P1;SDS_P2;PMS_P1;PMS_P2;Temp;Humidity;BMP_temperature;BMP_pressure;BME280_temperature;BME280_humidity;BME280_pressure;Samples;Min_cycle;Max_cycle;Signal;HPM_P1;HPM_P2
2021/07/20 00:07:36;;;;;;;8.63;3.45;;;15.90;99.90;;;;;;20926494;28;20372;-79
2021/07/20 00:17:42;;;;;;;14.97;4.00;;;15.70;99.90;;;;;;20916458;28;20033;-79
2021/07/20 00:27:43;;;;;;;13.15;4.13;;;15.60;99.90;;;;;;20917716;28;20764;-80
2021/07/20 00:37:44;;;;;;;13.73;4.63;;;15.40;99.90;;;;;;20916061;28;20040;-79
2021/07/20 00:47:47;;;;;;;;;;;15.50;99.90;;;;;;20914561;28;20043;-79
2021/07/20 00:57:48;;;;;;;6.72;4.80;;;15.50;99.90;;;;;;20930821;28;19913;-79
2021/07/20 01:07:50;;;;;;;15.20;5.82;;;15.30;99.90;;;;;;20913691;28;20033;-80
2021/07/20 01:17:57;;;;;;;8.55;5.20;;;14.90;99.90;;;;;;20909419;28;20100;-80
2021/07/20 01:28:03;;;;;;;11.15;5.35;;;15.10;99.90;;;;;;20909592;28;20025;-80
2021/07/20 01:38:08;;;;;;;14.85;5.88;;;15.00;99.90;;;;;;20926052;28;20479;-78
2021/07/20 01:48:11;;;;;;;9.07;5.60;;;14.90;99.90;;;;;;20908001;28;20029;-79
2021/07/20 01:58:12;;;;;;;11.75;5.72;;;15.00;99.90;;;;;;20905885;28;20055;-80
2021/07/20 02:08:30;;;;;;;12.02;5.93;;;14.90;99.90;;;;;;20893170;28;20037;-79
2021/07/20 02:18:36;;;;;;;11.25;5.85;;;14.60;99.90;;;;;;20892909;28;20072;-78
2021/07/20 02:28:46;;;;;;;20.85;5.90;;;14.50;99.90;;;;;;20905168;28;20384;-80
2021/07/20 02:38:49;;;;;;;13.93;5.55;;;14.60;99.90;;;;;;20906981;28;20032;-80
2021/07/20 02:48:57;;;;;;;11.57;6.22;;;14.40;99.90;;;;;;20900870;28;20126;-79
2021/07/20 02:59:04;;;;;;;11.70;6.53;;;14.40;99.90;;;;;;20901609;28;20037;-79
2021/07/20 03:09:28;;;;;;;9.85;5.88;;;14.30;99.90;;;;;;20922392;28;20041;-80
2021/07/20 03:19:31;;;;;;;11.68;6.55;;;14.20;99.90;;;;;;20902824;28;20083;-79
2021/07/20 03:29:42;;;;;;;11.02;6.82;;;14.20;99.90;;;;;;20902393;28;20029;-79
2021/07/20 03:39:45;;;;;;;14.45;8.63;;;14.10;99.90;;;;;;20892379;28;20064;-77
2021/07/20 03:49:48;;;;;;;38.53;10.98;;;14.50;99.90;;;;;;20934106;28;20040;-79
2021/07/20 03:59:53;;;;;;;23.73;10.40;;;14.60;99.90;;;;;;20916027;28;20032;-80
2021/07/20 04:10:15;;;;;;;30.00;12.27;;;14.60;99.90;;;;;;20919965;28;20053;-79
2021/07/20 04:20:47;;;;;;;31.90;11.50;;;14.60;99.90;;;;;;20914837;28;20407;-80
2021/07/20 04:30:50;;;;;;;36.88;14.10;;;14.70;99.90;;;;;;20915952;28;20021;-80
2021/07/20 04:40:52;;;;;;;74.88;21.52;;;14.60;99.90;;;;;;20913882;28;20056;-78
2021/07/20 04:50:55;;;;;;;76.38;18.50;;;14.60;99.90;;;;;;20907694;28;20053;-78
2021/07/20 05:00:57;;;;;;;51.63;19.90;;;14.50;99.90;;;;;;20894672;28;20035;-78
2021/07/20 05:10:59;;;;;;;50.85;19.45;;;14.60;99.90;;;;;;20911184;28;20037;-79
2021/07/20 05:21:05;;;;;;;40.00;17.05;;;15.00;99.90;;;;;;20896549;28;20119;-78
2021/07/20 05:31:10;;;;;;;32.30;14.90;;;15.50;99.90;;;;;;20912898;28;20032;-78
2021/07/20 05:51:21;;;;;;;25.60;14.02;;;16.20;99.90;;;;;;21070744;28;20043;-79
2021/07/20 06:01:38;;;;;;;26.23;13.55;;;16.20;99.90;;;;;;21043426;28;20054;-80
2021/07/20 06:11:42;;;;;;;26.50;13.88;;;16.60;99.90;;;;;;21039192;28;20028;-82
2021/07/20 06:21:46;;;;;;;25.70;13.35;;;17.00;99.90;;;;;;21061378;28;20112;-81
2021/07/20 06:31:56;;;;;;;30.90;14.18;;;17.30;99.90;;;;;;21046948;28;20047;-80
2021/07/20 06:41:59;;;;;;;;;;;17.70;99.90;;;;;;21044901;28;20054;-80
2021/07/20 06:51:59;;;;;;;26.60;12.30;;;18.20;99.90;;;;;;21061563;28;19918;-79
2021/07/20 07:02:02;;;;;;;25.50;11.73;;;18.40;99.90;;;;;;21047378;28;20028;-79
2021/07/20 07:12:04;;;;;;;27.08;13.70;;;18.70;99.90;;;;;;21062932;28;20119;-79
2021/07/20 07:22:06;;;;;;;28.88;13.35;;;19.40;99.90;;;;;;21075934;28;20423;-83
2021/07/20 07:32:07;;;;;;;26.60;11.98;;;19.30;99.90;;;;;;21101984;28;20028;-82
2021/07/20 07:42:08;;;;;;;23.03;12.00;;;20.10;99.90;;;;;;21061898;28;20032;-79
2021/07/20 07:52:11;;;;;;;22.92;13.38;;;20.90;99.90;;;;;;21065158;28;20275;-80
2021/07/20 08:02:19;;;;;;;23.20;13.02;;;21.10;99.90;;;;;;21060289;28;20504;-81
2021/07/20 08:12:21;;;;;;;23.27;13.65;;;21.40;99.90;;;;;;21064578;28;20036;-81
2021/07/20 08:22:23;;;;;;;25.00;13.13;;;21.80;99.90;;;;;;21072267;28;20326;-82
2021/07/20 08:32:29;;;;;;;23.98;13.93;;;22.70;99.90;;;;;;21073040;28;20052;-80
2021/07/20 08:42:45;;;;;;;22.75;13.32;;;23.30;99.90;;;;;;21048087;28;20040;-83
2021/07/20 08:53:10;;;;;;;22.77;13.95;;;23.90;99.90;;;;;;21065459;28;20074;-83
2021/07/20 09:03:32;;;;;;;22.52;12.20;;;24.00;99.90;;;;;;21082780;28;20059;-82
2021/07/20 09:13:34;;;;;;;22.27;12.90;;;25.10;99.90;;;;;;21082037;28;20092;-83
2021/07/20 09:23:56;;;;;;;20.80;11.93;;;25.40;99.90;;;;;;21082378;28;20039;-83
2021/07/20 09:34:03;;;;;;;;;;;26.20;99.90;;;;;;21047605;28;20035;-82
2021/07/20 09:44:18;;;;;;;15.45;10.13;;;25.80;99.90;;;;;;21085620;28;19934;-83
2021/07/20 09:54:40;;;;;;;16.95;11.30;;;27.00;99.90;;;;;;21047038;28;20504;-82
2021/07/20 10:04:54;;;;;;;20.45;11.68;;;27.30;99.90;;;;;;21062174;28;20046;-80
2021/07/20 10:15:07;;;;;;;22.92;11.95;;;27.20;99.90;;;;;;21041918;28;20035;-82
2021/07/20 10:25:17;;;;;;;19.25;12.40;;;26.40;99.90;;;;;;20979933;28;20453;-83
2021/07/20 10:35:24;;;;;;;15.52;10.57;;;27.50;99.90;;;;;;20957194;28;20032;-85
2021/07/20 10:45:29;;;;;;;15.57;10.50;;;28.60;99.90;;;;;;20958987;28;20393;-84
2021/07/20 10:55:53;;;;;;;17.15;12.02;;;29.40;99.90;;;;;;20989725;28;20036;-83
2021/07/20 11:05:55;;;;;;;21.35;12.27;;;28.00;99.90;;;;;;20994222;28;20036;-82
2021/07/20 11:15:58;;;;;;;19.92;12.48;;;26.70;99.90;;;;;;20981886;28;20120;-83
2021/07/20 11:26:00;;;;;;;22.30;12.57;;;27.50;99.90;;;;;;21040554;28;20119;-85
2021/07/20 11:36:04;;;;;;;17.73;12.68;;;28.00;99.90;;;;;;20923392;28;20397;-85
2021/07/20 11:46:12;;;;;;;18.67;11.73;;;29.00;99.90;;;;;;21039209;22;20040;-79
2021/07/20 11:56:23;;;;;;;19.10;12.60;;;28.90;99.90;;;;;;21055669;28;20068;-81
2021/07/20 12:06:38;;;;;;;17.70;12.50;;;28.90;99.90;;;;;;21035417;28;20039;-80
2021/07/20 12:16:46;;;;;;;19.77;11.88;;;28.50;99.90;;;;;;21039884;28;20080;-80
2021/07/20 12:26:48;;;;;;;22.98;13.05;;;28.60;99.90;;;;;;21043106;28;20020;-77
2021/07/20 12:36:50;;;;;;;23.92;12.82;;;27.40;99.90;;;;;;20991450;28;20388;-78
2021/07/20 12:47:02;;;;;;;17.73;12.30;;;27.70;99.90;;;;;;21008760;28;20032;-78
2021/07/20 12:57:05;;;;;;;21.58;13.60;;;27.80;99.90;;;;;;21008891;28;20529;-77
2021/07/20 13:07:06;;;;;;;21.98;13.45;;;27.40;99.90;;;;;;21008317;28;20032;-77
2021/07/20 13:17:10;;;;;;;23.55;13.32;;;27.40;99.90;;;;;;21032518;28;20342;-76
2021/07/20 13:27:10;;;;;;;24.38;13.13;;;27.30;99.90;;;;;;21034615;28;20421;-77
2021/07/20 13:37:20;;;;;;;20.00;12.93;;;27.70;99.90;;;;;;20939565;28;20752;-76
2021/07/20 13:47:26;;;;;;;23.70;15.02;;;28.00;99.90;;;;;;20896474;28;20033;-76
2021/07/20 13:57:28;;;;;;;22.15;14.25;;;27.40;99.90;;;;;;20896556;28;20067;-77
2021/07/20 14:07:29;;;;;;;23.95;13.82;;;27.80;99.90;;;;;;20896707;28;20032;-77
2021/07/20 14:17:31;;;;;;;21.50;13.70;;;28.20;99.90;;;;;;20891886;28;20025;-77
2021/07/20 14:27:33;;;;;;;22.05;13.70;;;28.20;99.90;;;;;;20864929;28;20113;-77
2021/07/20 14:37:54;;;;;;;21.00;12.90;;;29.10;99.90;;;;;;20874399;28;20117;-77
2021/07/20 14:47:55;;;;;;;;;;;28.40;99.90;;;;;;20824542;28;20061;-76
2021/07/20 14:58:20;;;;;;;22.17;12.50;;;28.30;99.90;;;;;;20817200;28;19994;-77
2021/07/20 15:08:26;;;;;;;21.52;11.45;;;28.30;99.90;;;;;;20813508;28;20116;-77
2021/07/20 15:19:02;;;;;;;19.20;12.65;;;28.00;99.90;;;;;;20825952;28;20124;-76
2021/07/20 15:29:04;;;;;;;16.80;11.38;;;27.50;99.90;;;;;;20868051;28;20029;-77
2021/07/20 15:39:08;;;;;;;17.90;11.98;;;27.90;99.90;;;;;;20831622;28;20033;-77
2021/07/20 15:49:10;;;;;;;18.48;12.30;;;27.40;99.90;;;;;;20816493;28;20029;-77
2021/07/20 15:59:11;;;;;;;21.27;12.70;;;26.90;99.90;;;;;;20852875;28;20392;-77
2021/07/20 16:09:13;;;;;;;20.40;12.65;;;26.60;99.90;;;;;;20808124;28;20033;-77
2021/07/20 16:19:16;;;;;;;23.98;14.65;;;26.70;99.90;;;;;;20807013;28;20037;-77
2021/07/20 16:29:18;;;;;;;28.02;15.18;;;26.70;99.90;;;;;;20809195;28;20103;-76
2021/07/20 16:39:21;;;;;;;24.88;14.93;;;26.10;99.90;;;;;;20806346;28;20721;-75
2021/07/20 16:49:22;;;;;;;;;;;25.80;99.90;;;;;;20807167;28;20045;-76
2021/07/20 16:59:26;;;;;;;29.57;15.67;;;25.80;99.90;;;;;;20804872;28;19924;-77
2021/07/20 17:09:27;;;;;;;22.08;12.88;;;25.80;99.90;;;;;;20804714;28;20296;-76
2021/07/20 17:19:28;;;;;;;;;;;25.60;99.90;;;;;;20803050;28;20075;-77
2021/07/20 17:29:31;;;;;;;22.23;12.57;;;25.70;99.90;;;;;;20861032;28;19943;-76
2021/07/20 17:39:32;;;;;;;21.10;13.13;;;25.70;99.90;;;;;;20893260;22;20049;-76
2021/07/20 17:49:33;;;;;;;21.00;12.80;;;25.40;99.90;;;;;;20804272;28;20064;-77
2021/07/20 17:59:34;;;;;;;;;;;24.90;99.90;;;;;;20781351;28;20042;-78
2021/07/20 18:09:35;;;;;;;21.63;13.13;;;24.70;99.90;;;;;;20750759;28;20291;-77
2021/07/20 18:19:36;;;;;;;21.20;12.75;;;24.50;99.90;;;;;;20791962;28;20104;-77
2021/07/20 18:29:37;;;;;;;23.40;13.77;;;24.30;99.90;;;;;;20817479;28;20132;-77
2021/07/20 18:39:38;;;;;;;22.80;13.37;;;24.10;99.90;;;;;;20818924;28;20034;-77
2021/07/20 18:49:39;;;;;;;23.63;14.63;;;23.60;99.90;;;;;;20817714;28;20033;-78
2021/07/20 18:59:40;;;;;;;20.07;12.67;;;23.30;99.90;;;;;;20800185;28;20045;-77
2021/07/20 19:09:40;;;;;;;20.73;14.10;;;23.10;99.90;;;;;;20815631;28;20048;-77
2021/07/20 19:19:41;;;;;;;23.50;13.97;;;21.90;99.90;;;;;;20813036;28;20025;-78
2021/07/20 19:29:43;;;;;;;22.00;14.63;;;21.40;99.90;;;;;;20874516;28;20029;-78
2021/07/20 19:39:44;;;;;;;27.70;15.18;;;21.10;99.90;;;;;;20895687;28;20040;-77
2021/07/20 19:49:45;;;;;;;26.80;14.33;;;20.60;99.90;;;;;;20895450;28;20029;-77
2021/07/20 19:59:46;;;;;;;25.77;14.07;;;20.30;99.90;;;;;;20893770;28;20039;-77
2021/07/20 20:09:46;;;;;;;26.50;14.80;;;20.20;99.90;;;;;;20861947;28;20036;-77
2021/07/20 20:19:47;;;;;;;26.83;14.80;;;19.90;99.90;;;;;;20784125;28;20044;-77
2021/07/20 20:29:48;;;;;;;31.57;16.43;;;19.60;99.90;;;;;;20866351;28;20082;-78
2021/07/20 20:39:49;;;;;;;25.87;15.90;;;19.40;99.90;;;;;;20887594;28;20127;-77
2021/07/20 20:49:50;;;;;;;28.27;15.80;;;18.80;99.90;;;;;;20889252;28;20495;-77
2021/07/20 20:59:51;;;;;;;27.63;16.00;;;18.60;99.90;;;;;;20889508;28;20021;-77
2021/07/20 21:09:52;;;;;;;30.57;16.17;;;18.50;99.90;;;;;;20870224;28;20094;-77
2021/07/20 21:19:52;;;;;;;43.63;15.90;;;18.30;99.90;;;;;;20806510;28;20699;-77
2021/07/20 21:29:54;;;;;;;23.13;14.33;;;18.30;99.90;;;;;;20831966;28;20396;-77
2021/07/20 21:39:55;;;;;;;29.73;14.85;;;18.20;99.90;;;;;;20788179;28;20087;-77
2021/07/20 21:49:57;;;;;;;33.55;14.80;;;18.20;99.90;;;;;;20816446;28;20063;-76
2021/07/20 21:59:58;;;;;;;25.85;14.85;;;17.90;99.90;;;;;;20881131;28;20063;-76
2021/07/20 22:09:58;;;;;;;28.43;14.93;;;17.60;99.90;;;;;;20921781;28;20033;-76
2021/07/20 22:19:59;;;;;;;27.13;15.53;;;17.20;99.90;;;;;;20921342;28;20052;-76
2021/07/20 22:30:01;;;;;;;28.47;16.63;;;16.90;99.90;;;;;;20902411;28;20039;-78
2021/07/20 22:40:05;;;;;;;26.37;15.30;;;16.90;99.90;;;;;;20919496;28;20037;-76
2021/07/20 22:50:10;;;;;;;23.85;14.27;;;17.00;99.90;;;;;;20919085;28;20507;-76
2021/07/20 23:00:14;;;;;;;30.65;15.50;;;16.60;99.90;;;;;;20899744;28;20033;-76
2021/07/20 23:10:18;;;;;;;26.95;15.38;;;16.60;99.90;;;;;;20899354;28;20423;-75
2021/07/20 23:20:19;;;;;;;28.60;17.50;;;16.50;99.90;;;;;;20916856;28;20036;-75
2021/07/20 23:30:23;;;;;;;25.55;15.57;;;16.30;99.90;;;;;;20898331;28;20055;-76
2021/07/20 23:40:31;;;;;;;25.65;15.60;;;16.30;99.90;;;;;;20897719;28;20090;-75
2021/07/20 23:50:35;;;;;;;25.27;15.05;;;16.20;99.90;;;;;;20896209;28;20098;-75
